sensor_id;sensor_type;location;lat;lon;timestamp;pressure;altitude;pressure_sealevel;temperature;humidity
57048;BME280;42934;54.294;18.598;2023-07-02T00:01:37;99335.84;;;17.63;81.47
57048;BME280;42934;54.294;18.598;2023-07-02T00:04:06;99347.44;;;17.62;83.53
57048;BME280;42934;54.294;18.598;2023-07-02T00:06:37;99342.59;;;17.56;83.25
57048;BME280;42934;54.294;18.598;2023-07-02T00:09:08;99337.91;;;17.59;83.71
57048;BME280;42934;54.294;18.598;2023-07-02T00:11:38;99333.94;;;17.54;84.16
57048;BME280;42934;54.294;18.598;2023-07-02T00:14:09;99335.03;;;17.51;85.32
57048;BME280;42934;54.294;18.598;2023-07-02T00:16:44;99327.94;;;17.40;85.60
57048;BME280;42934;54.294;18.598;2023-07-02T00:19:14;99324.72;;;17.37;86.38
57048;BME280;42934;54.294;18.598;2023-07-02T00:21:44;99331.44;;;17.41;85.34
57048;BME280;42934;54.294;18.598;2023-07-02T00:24:13;99317.88;;;17.12;89.09
57048;BME280;42934;54.294;18.598;2023-07-02T00:26:44;99321.34;;;17.23;88.50
57048;BME280;42934;54.294;18.598;2023-07-02T00:29:16;99316.06;;;17.23;89.04
57048;BME280;42934;54.294;18.598;2023-07-02T00:31:46;99317.63;;;17.26;89.05
57048;BME280;42934;54.294;18.598;2023-07-02T00:34:15;99314.59;;;17.31;89.54
57048;BME280;42934;54.294;18.598;2023-07-02T00:36:44;99319.06;;;17.30;87.67
57048;BME280;42934;54.294;18.598;2023-07-02T00:39:14;99317.03;;;17.22;89.72
57048;BME280;42934;54.294;18.598;2023-07-02T00:41:46;99312.06;;;17.29;88.63
57048;BME280;42934;54.294;18.598;2023-07-02T00:44:17;99315.31;;;17.33;88.41
57048;BME280;42934;54.294;18.598;2023-07-02T00:46:51;99316.03;;;17.35;88.85
57048;BME280;42934;54.294;18.598;2023-07-02T00:49:20;99316.19;;;17.22;89.87
57048;BME280;42934;54.294;18.598;2023-07-02T00:51:50;99303.91;;;17.21;90.09
57048;BME280;42934;54.294;18.598;2023-07-02T00:54:19;99311.63;;;17.24;89.68
57048;BME280;42934;54.294;18.598;2023-07-02T00:56:49;99305.59;;;17.22;89.79
57048;BME280;42934;54.294;18.598;2023-07-02T00:59:20;99301.34;;;17.31;87.64
57048;BME280;42934;54.294;18.598;2023-07-02T01:01:50;99297.72;;;17.20;89.20
57048;BME280;42934;54.294;18.598;2023-07-02T01:04:20;99290.91;;;17.18;89.01
57048;BME280;42934;54.294;18.598;2023-07-02T01:06:57;99291.88;;;17.06;90.07
57048;BME280;42934;54.294;18.598;2023-07-02T01:09:27;99280.66;;;17.13;89.92
57048;BME280;42934;54.294;18.598;2023-07-02T01:11:58;99283.53;;;17.21;88.00
57048;BME280;42934;54.294;18.598;2023-07-02T01:14:33;99278.00;;;17.13;89.37
57048;BME280;42934;54.294;18.598;2023-07-02T01:17:03;99284.06;;;17.04;90.79
57048;BME280;42934;54.294;18.598;2023-07-02T01:19:46;99278.41;;;16.97;91.59
57048;BME280;42934;54.294;18.598;2023-07-02T01:22:21;99274.53;;;17.01;91.30
57048;BME280;42934;54.294;18.598;2023-07-02T01:24:51;99277.69;;;16.95;91.11
57048;BME280;42934;54.294;18.598;2023-07-02T01:27:21;99274.53;;;17.01;89.22
57048;BME280;42934;54.294;18.598;2023-07-02T01:29:52;99271.53;;;17.06;88.21
57048;BME280;42934;54.294;18.598;2023-07-02T01:32:22;99267.50;;;17.12;87.57
57048;BME280;42934;54.294;18.598;2023-07-02T01:34:53;99269.06;;;17.14;87.13
57048;BME280;42934;54.294;18.598;2023-07-02T01:37:22;99262.88;;;16.93;87.88
57048;BME280;42934;54.294;18.598;2023-07-02T01:39:51;99263.63;;;16.84;88.53
57048;BME280;42934;54.294;18.598;2023-07-02T01:42:22;99256.75;;;16.81;89.20
57048;BME280;42934;54.294;18.598;2023-07-02T01:44:51;99254.09;;;16.81;89.01
57048;BME280;42934;54.294;18.598;2023-07-02T01:47:20;99254.69;;;16.85;88.74
57048;BME280;42934;54.294;18.598;2023-07-02T01:49:51;99251.78;;;16.88;88.61
57048;BME280;42934;54.294;18.598;2023-07-02T01:52:21;99256.25;;;16.87;88.50
57048;BME280;42934;54.294;18.598;2023-07-02T01:54:50;99251.09;;;16.86;88.49
57048;BME280;42934;54.294;18.598;2023-07-02T01:57:20;99249.38;;;16.85;90.42
57048;BME280;42934;54.294;18.598;2023-07-02T01:59:49;99243.13;;;16.86;90.46
57048;BME280;42934;54.294;18.598;2023-07-02T02:02:20;99242.75;;;16.90;90.16
57048;BME280;42934;54.294;18.598;2023-07-02T02:04:51;99231.19;;;16.91;90.45
57048;BME280;42934;54.294;18.598;2023-07-02T02:07:22;99225.41;;;16.86;91.43
57048;BME280;42934;54.294;18.598;2023-07-02T02:09:51;99234.78;;;16.90;91.34
57048;BME280;42934;54.294;18.598;2023-07-02T02:12:21;99237.09;;;16.95;89.46
57048;BME280;42934;54.294;18.598;2023-07-02T02:14:50;99236.84;;;16.87;91.59
57048;BME280;42934;54.294;18.598;2023-07-02T02:17:19;99242.00;;;16.88;91.28
57048;BME280;42934;54.294;18.598;2023-07-02T02:19:49;99233.13;;;16.89;91.63
57048;BME280;42934;54.294;18.598;2023-07-02T02:22:19;99236.44;;;17.02;89.50
57048;BME280;42934;54.294;18.598;2023-07-02T02:24:49;99229.72;;;16.98;89.54
57048;BME280;42934;54.294;18.598;2023-07-02T02:27:18;99232.63;;;16.95;90.57
57048;BME280;42934;54.294;18.598;2023-07-02T02:29:47;99233.09;;;17.00;90.29
57048;BME280;42934;54.294;18.598;2023-07-02T02:32:17;99231.06;;;16.93;91.66
57048;BME280;42934;54.294;18.598;2023-07-02T02:34:49;99233.13;;;16.89;92.62
57048;BME280;42934;54.294;18.598;2023-07-02T02:37:21;99231.63;;;16.96;91.87
57048;BME280;42934;54.294;18.598;2023-07-02T02:39:51;99227.91;;;16.99;92.51
57048;BME280;42934;54.294;18.598;2023-07-02T02:42:21;99233.13;;;16.89;92.30
57048;BME280;42934;54.294;18.598;2023-07-02T02:44:51;99228.88;;;16.98;91.86
57048;BME280;42934;54.294;18.598;2023-07-02T02:47:20;99228.91;;;16.87;93.83
57048;BME280;42934;54.294;18.598;2023-07-02T02:49:50;99224.44;;;16.87;93.13
57048;BME280;42934;54.294;18.598;2023-07-02T02:52:21;99224.94;;;16.81;93.40
57048;BME280;42934;54.294;18.598;2023-07-02T02:54:50;99222.19;;;16.83;94.16
57048;BME280;42934;54.294;18.598;2023-07-02T02:57:21;99225.41;;;16.86;93.81
57048;BME280;42934;54.294;18.598;2023-07-02T02:59:50;99211.19;;;16.87;93.71
57048;BME280;42934;54.294;18.598;2023-07-02T03:02:19;99211.50;;;16.94;92.93
57048;BME280;42934;54.294;18.598;2023-07-02T03:04:49;99216.41;;;17.10;90.50
57048;BME280;42934;54.294;18.598;2023-07-02T03:07:20;99210.19;;;16.88;93.34
57048;BME280;42934;54.294;18.598;2023-07-02T03:09:49;99211.31;;;16.86;94.60
57048;BME280;42934;54.294;18.598;2023-07-02T03:12:18;99208.41;;;16.89;93.62
57048;BME280;42934;54.294;18.598;2023-07-02T03:14:48;99209.38;;;16.88;95.21
57048;BME280;42934;54.294;18.598;2023-07-02T03:17:21;99205.38;;;16.93;94.43
57048;BME280;42934;54.294;18.598;2023-07-02T03:19:50;99203.31;;;16.97;94.05
57048;BME280;42934;54.294;18.598;2023-07-02T03:22:21;99202.72;;;16.93;94.01
57048;BME280;42934;54.294;18.598;2023-07-02T03:24:50;99207.06;;;16.94;94.24
57048;BME280;42934;54.294;18.598;2023-07-02T03:27:20;99203.56;;;16.94;93.64
57048;BME280;42934;54.294;18.598;2023-07-02T03:29:49;99199.38;;;16.91;94.11
57048;BME280;42934;54.294;18.598;2023-07-02T03:32:19;99195.84;;;16.91;94.70
57048;BME280;42934;54.294;18.598;2023-07-02T03:34:48;99197.94;;;16.87;95.47
57048;BME280;42934;54.294;18.598;2023-07-02T03:37:20;99189.47;;;16.93;94.81
57048;BME280;42934;54.294;18.598;2023-07-02T03:39:49;99192.00;;;16.95;95.01
57048;BME280;42934;54.294;18.598;2023-07-02T03:42:19;99190.78;;;16.99;94.57
57048;BME280;42934;54.294;18.598;2023-07-02T03:44:48;99193.94;;;16.93;95.33
57048;BME280;42934;54.294;18.598;2023-07-02T03:47:17;99192.59;;;16.98;94.50
57048;BME280;42934;54.294;18.598;2023-07-02T03:49:48;99200.03;;;17.05;94.06
57048;BME280;42934;54.294;18.598;2023-07-02T03:52:17;99184.97;;;17.05;93.40
57048;BME280;42934;54.294;18.598;2023-07-02T03:54:47;99194.38;;;17.09;93.74
57048;BME280;42934;54.294;18.598;2023-07-02T03:57:17;99185.75;;;17.17;92.34
57048;BME280;42934;54.294;18.598;2023-07-02T03:59:46;99198.38;;;17.03;94.70
57048;BME280;42934;54.294;18.598;2023-07-02T04:02:16;99196.63;;;17.14;93.11
57048;BME280;42934;54.294;18.598;2023-07-02T04:04:45;99197.81;;;17.21;92.02
57048;BME280;42934;54.294;18.598;2023-07-02T04:07:15;99198.44;;;17.13;93.33
57048;BME280;42934;54.294;18.598;2023-07-02T04:09:44;99193.44;;;17.20;93.00
57048;BME280;42934;54.294;18.598;2023-07-02T04:12:15;99190.03;;;17.29;92.25
57048;BME280;42934;54.294;18.598;2023-07-02T04:14:44;99182.66;;;17.54;91.60
57048;BME280;42934;54.294;18.598;2023-07-02T04:17:15;99187.97;;;17.54;91.75
57048;BME280;42934;54.294;18.598;2023-07-02T04:19:45;99181.50;;;17.46;92.75
57048;BME280;42934;54.294;18.598;2023-07-02T04:22:14;99183.84;;;17.70;91.40
57048;BME280;42934;54.294;18.598;2023-07-02T04:24:43;99182.88;;;17.62;91.96
57048;BME280;42934;54.294;18.598;2023-07-02T04:27:17;99177.88;;;17.68;91.43
57048;BME280;42934;54.294;18.598;2023-07-02T04:30:07;99180.13;;;17.52;92.53
57048;BME280;42934;54.294;18.598;2023-07-02T04:32:38;99180.50;;;17.68;91.73
57048;BME280;42934;54.294;18.598;2023-07-02T04:35:08;99170.44;;;17.62;92.32
57048;BME280;42934;54.294;18.598;2023-07-02T04:37:39;99169.59;;;17.62;92.71
57048;BME280;42934;54.294;18.598;2023-07-02T04:40:09;99165.88;;;17.74;92.61
57048;BME280;42934;54.294;18.598;2023-07-02T04:42:41;99161.75;;;17.81;91.44
57048;BME280;42934;54.294;18.598;2023-07-02T04:45:15;99167.19;;;17.80;91.27
57048;BME280;42934;54.294;18.598;2023-07-02T04:47:45;99170.19;;;17.96;89.72
57048;BME280;42934;54.294;18.598;2023-07-02T04:50:15;99168.59;;;17.84;90.68
57048;BME280;42934;54.294;18.598;2023-07-02T04:52:45;99171.38;;;17.82;91.03
57048;BME280;42934;54.294;18.598;2023-07-02T04:55:14;99169.63;;;17.92;90.65
57048;BME280;42934;54.294;18.598;2023-07-02T04:57:45;99169.16;;;17.87;91.13
57048;BME280;42934;54.294;18.598;2023-07-02T05:00:14;99172.84;;;17.96;90.57
57048;BME280;42934;54.294;18.598;2023-07-02T05:02:44;99170.59;;;17.91;90.71
57048;BME280;42934;54.294;18.598;2023-07-02T05:05:13;99168.34;;;17.87;90.82
57048;BME280;42934;54.294;18.598;2023-07-02T05:07:45;99171.56;;;17.90;90.81
57048;BME280;42934;54.294;18.598;2023-07-02T05:10:14;99172.31;;;18.02;90.31
57048;BME280;42934;54.294;18.598;2023-07-02T05:12:45;99174.47;;;17.87;91.06
57048;BME280;42934;54.294;18.598;2023-07-02T05:15:14;99172.56;;;17.99;90.06
57048;BME280;42934;54.294;18.598;2023-07-02T05:17:43;99173.28;;;18.01;90.03
57048;BME280;42934;54.294;18.598;2023-07-02T05:20:13;99171.56;;;17.90;91.05
57048;BME280;42934;54.294;18.598;2023-07-02T05:22:42;99168.63;;;17.93;91.11
57048;BME280;42934;54.294;18.598;2023-07-02T05:25:12;99172.84;;;17.96;90.99
57048;BME280;42934;54.294;18.598;2023-07-02T05:27:41;99179.88;;;18.07;90.97
57048;BME280;42934;54.294;18.598;2023-07-02T05:30:13;99177.09;;;18.08;91.08
57048;BME280;42934;54.294;18.598;2023-07-02T05:32:42;99178.91;;;18.08;90.97
57048;BME280;42934;54.294;18.598;2023-07-02T05:35:12;99184.94;;;18.10;91.22
57048;BME280;42934;54.294;18.598;2023-07-02T05:37:41;99178.34;;;18.04;90.91
57048;BME280;42934;54.294;18.598;2023-07-02T05:40:11;99177.06;;;17.99;91.80
57048;BME280;42934;54.294;18.598;2023-07-02T05:42:43;99171.56;;;17.90;92.22
57048;BME280;42934;54.294;18.598;2023-07-02T05:45:13;99176.22;;;17.98;91.52
57048;BME280;42934;54.294;18.598;2023-07-02T05:47:43;99175.50;;;17.96;91.71
57048;BME280;42934;54.294;18.598;2023-07-02T05:50:12;99174.13;;;18.02;91.27
57048;BME280;42934;54.294;18.598;2023-07-02T05:52:42;99176.28;;;18.17;89.86
57048;BME280;42934;54.294;18.598;2023-07-02T05:55:11;99172.38;;;18.12;89.92
57048;BME280;42934;54.294;18.598;2023-07-02T05:57:41;99173.59;;;18.08;90.54
57048;BME280;42934;54.294;18.598;2023-07-02T06:00:11;99176.25;;;18.08;90.18
57048;BME280;42934;54.294;18.598;2023-07-02T06:02:42;99180.00;;;18.05;90.92
57048;BME280;42934;54.294;18.598;2023-07-02T06:05:11;99169.97;;;18.09;90.36
57048;BME280;42934;54.294;18.598;2023-07-02T06:07:41;99164.06;;;18.05;90.63
57048;BME280;42934;54.294;18.598;2023-07-02T06:10:10;99170.72;;;18.21;89.44
57048;BME280;42934;54.294;18.598;2023-07-02T06:12:39;99173.19;;;18.12;89.72
57048;BME280;42934;54.294;18.598;2023-07-02T06:15:11;99171.66;;;18.10;90.46
57048;BME280;42934;54.294;18.598;2023-07-02T06:17:42;99182.38;;;17.99;91.68
57048;BME280;42934;54.294;18.598;2023-07-02T06:20:12;99169.81;;;18.01;91.32
57048;BME280;42934;54.294;18.598;2023-07-02T06:22:41;99165.16;;;17.93;91.62
57048;BME280;42934;54.294;18.598;2023-07-02T06:25:10;99168.78;;;17.92;92.03
57048;BME280;42934;54.294;18.598;2023-07-02T06:27:40;99162.75;;;17.90;92.19
57048;BME280;42934;54.294;18.598;2023-07-02T06:30:10;99160.81;;;17.92;92.39
57048;BME280;42934;54.294;18.598;2023-07-02T06:32:40;99164.44;;;17.91;92.51
57048;BME280;42934;54.294;18.598;2023-07-02T06:35:09;99169.81;;;18.01;91.84
57048;BME280;42934;54.294;18.598;2023-07-02T06:37:39;99161.50;;;17.94;92.39
57048;BME280;42934;54.294;18.598;2023-07-02T06:40:09;99159.66;;;17.85;92.59
57048;BME280;42934;54.294;18.598;2023-07-02T06:42:38;99160.63;;;17.84;93.18
57048;BME280;42934;54.294;18.598;2023-07-02T06:45:08;99166.13;;;17.92;92.21
57048;BME280;42934;54.294;18.598;2023-07-02T06:47:40;99174.94;;;17.92;92.13
57048;BME280;42934;54.294;18.598;2023-07-02T06:50:09;99167.63;;;17.85;92.85
57048;BME280;42934;54.294;18.598;2023-07-02T06:52:39;99159.13;;;17.91;92.26
57048;BME280;42934;54.294;18.598;2023-07-02T06:55:09;99170.06;;;17.98;92.00
57048;BME280;42934;54.294;18.598;2023-07-02T06:57:43;99167.22;;;17.89;92.51
57048;BME280;42934;54.294;18.598;2023-07-02T07:00:14;99164.56;;;17.89;92.74
57048;BME280;42934;54.294;18.598;2023-07-02T07:02:47;99173.00;;;17.95;92.72
57048;BME280;42934;54.294;18.598;2023-07-02T07:05:16;99170.06;;;17.98;92.66
57048;BME280;42934;54.294;18.598;2023-07-02T07:07:45;99164.88;;;17.96;93.00
57048;BME280;42934;54.294;18.598;2023-07-02T07:10:14;99178.56;;;17.91;93.04
57048;BME280;42934;54.294;18.598;2023-07-02T07:12:44;99174.94;;;17.92;93.05
57048;BME280;42934;54.294;18.598;2023-07-02T07:15:13;99179.25;;;17.93;92.79
57048;BME280;42934;54.294;18.598;2023-07-02T07:17:44;99175.31;;;17.88;93.17
57048;BME280;42934;54.294;18.598;2023-07-02T07:20:13;99175.66;;;17.95;93.19
57048;BME280;42934;54.294;18.598;2023-07-02T07:22:43;99181.53;;;17.98;92.59
57048;BME280;42934;54.294;18.598;2023-07-02T07:25:12;99188.50;;;17.99;91.50
57048;BME280;42934;54.294;18.598;2023-07-02T07:27:43;99180.09;;;17.94;90.80
57048;BME280;42934;54.294;18.598;2023-07-02T07:30:13;99196.44;;;17.89;89.82
57048;BME280;42934;54.294;18.598;2023-07-02T07:32:45;99214.31;;;17.87;88.91
57048;BME280;42934;54.294;18.598;2023-07-02T07:35:14;99215.34;;;17.75;88.65
57048;BME280;42934;54.294;18.598;2023-07-02T07:37:44;99220.13;;;17.60;88.74
57048;BME280;42934;54.294;18.598;2023-07-02T07:40:14;99216.13;;;17.66;88.12
57048;BME280;42934;54.294;18.598;2023-07-02T07:42:43;99225.97;;;17.54;88.50
57048;BME280;42934;54.294;18.598;2023-07-02T07:45:13;99231.06;;;17.67;87.77
57048;BME280;42934;54.294;18.598;2023-07-02T07:47:44;99226.28;;;17.61;87.31
57048;BME280;42934;54.294;18.598;2023-07-02T07:50:13;99229.59;;;17.53;86.79
57048;BME280;42934;54.294;18.598;2023-07-02T07:52:43;99233.59;;;17.47;87.26
57048;BME280;42934;54.294;18.598;2023-07-02T07:55:12;99236.94;;;17.49;85.80
57048;BME280;42934;54.294;18.598;2023-07-02T07:57:42;99243.81;;;17.52;85.79
57048;BME280;42934;54.294;18.598;2023-07-02T08:00:12;99243.44;;;17.57;84.23
57048;BME280;42934;54.294;18.598;2023-07-02T08:02:47;99260.00;;;17.49;84.39
57048;BME280;42934;54.294;18.598;2023-07-02T08:05:16;99249.78;;;17.44;84.01
57048;BME280;42934;54.294;18.598;2023-07-02T08:07:47;99264.91;;;17.33;83.89
57048;BME280;42934;54.294;18.598;2023-07-02T08:10:17;99263.78;;;17.35;83.82
57048;BME280;42934;54.294;18.598;2023-07-02T08:12:46;99270.78;;;17.15;84.36
57048;BME280;42934;54.294;18.598;2023-07-02T08:15:16;99271.34;;;17.19;84.15
57048;BME280;42934;54.294;18.598;2023-07-02T08:17:47;99271.78;;;17.03;83.03
57048;BME280;42934;54.294;18.598;2023-07-02T08:20:16;99265.28;;;16.85;84.61
57048;BME280;42934;54.294;18.598;2023-07-02T08:22:45;99269.72;;;16.95;82.88
57048;BME280;42934;54.294;18.598;2023-07-02T08:25:14;99266.88;;;16.76;83.80
57048;BME280;42934;54.294;18.598;2023-07-02T08:27:45;99269.75;;;16.73;83.90
57048;BME280;42934;54.294;18.598;2023-07-02T08:30:14;99265.78;;;16.78;84.02
57048;BME280;42934;54.294;18.598;2023-07-02T08:32:46;99272.06;;;16.77;83.40
57048;BME280;42934;54.294;18.598;2023-07-02T08:35:16;99274.44;;;16.69;83.89
57048;BME280;42934;54.294;18.598;2023-07-02T08:37:45;99269.66;;;16.63;84.09
57048;BME280;42934;54.294;18.598;2023-07-02T08:40:18;99264.44;;;16.62;84.81
57048;BME280;42934;54.294;18.598;2023-07-02T08:42:48;99270.97;;;16.69;84.44
57048;BME280;42934;54.294;18.598;2023-07-02T08:45:18;99280.59;;;16.58;85.27
57048;BME280;42934;54.294;18.598;2023-07-02T08:47:50;99288.19;;;16.63;85.34
57048;BME280;42934;54.294;18.598;2023-07-02T08:50:23;99273.72;;;16.67;85.53
57048;BME280;42934;54.294;18.598;2023-07-02T08:52:54;99268.66;;;16.87;85.77
57048;BME280;42934;54.294;18.598;2023-07-02T08:55:23;99270.88;;;17.14;86.19
57048;BME280;42934;54.294;18.598;2023-07-02T08:57:53;99270.38;;;17.20;86.08
57048;BME280;42934;54.294;18.598;2023-07-02T09:00:23;99277.53;;;17.40;84.31
57048;BME280;42934;54.294;18.598;2023-07-02T09:02:54;99278.97;;;17.44;83.79
57048;BME280;42934;54.294;18.598;2023-07-02T09:05:23;99278.22;;;17.54;83.81
57048;BME280;42934;54.294;18.598;2023-07-02T09:07:52;99275.25;;;17.68;84.25
57048;BME280;42934;54.294;18.598;2023-07-02T09:10:29;99278.81;;;17.99;83.86
57048;BME280;42934;54.294;18.598;2023-07-02T09:13:04;99274.34;;;18.21;80.59
57048;BME280;42934;54.294;18.598;2023-07-02T09:15:37;99273.94;;;18.35;79.33
57048;BME280;42934;54.294;18.598;2023-07-02T09:18:19;99273.88;;;18.56;77.87
57048;BME280;42934;54.294;18.598;2023-07-02T09:20:51;99274.50;;;18.69;76.61
57048;BME280;42934;54.294;18.598;2023-07-02T09:23:21;99276.66;;;18.85;75.49
57048;BME280;42934;54.294;18.598;2023-07-02T09:25:50;99271.94;;;18.98;70.82
57048;BME280;42934;54.294;18.598;2023-07-02T09:28:21;99263.09;;;18.88;72.36
57048;BME280;42934;54.294;18.598;2023-07-02T09:30:54;99270.72;;;19.12;72.42
57048;BME280;42934;54.294;18.598;2023-07-02T09:33:27;99271.97;;;19.37;72.16
57048;BME280;42934;54.294;18.598;2023-07-02T09:35:57;99268.31;;;19.58;69.08
57048;BME280;42934;54.294;18.598;2023-07-02T09:38:26;99269.47;;;19.74;64.31
57048;BME280;42934;54.294;18.598;2023-07-02T09:40:57;99272.84;;;19.77;67.38
57048;BME280;42934;54.294;18.598;2023-07-02T09:43:33;99269.53;;;20.12;66.20
57048;BME280;42934;54.294;18.598;2023-07-02T09:46:02;99267.13;;;20.18;66.16
57048;BME280;42934;54.294;18.598;2023-07-02T09:48:35;99274.81;;;20.22;64.86
57048;BME280;42934;54.294;18.598;2023-07-02T09:51:05;99265.81;;;20.23;65.23
57048;BME280;42934;54.294;18.598;2023-07-02T09:53:35;99265.66;;;20.34;64.56
57048;BME280;42934;54.294;18.598;2023-07-02T09:56:04;99267.59;;;20.41;63.43
57048;BME280;42934;54.294;18.598;2023-07-02T09:58:36;99269.84;;;20.36;64.80
57048;BME280;42934;54.294;18.598;2023-07-02T10:01:05;99273.09;;;20.30;63.25
57048;BME280;42934;54.294;18.598;2023-07-02T10:03:36;99289.00;;;20.12;64.11
57048;BME280;42934;54.294;18.598;2023-07-02T10:06:06;99296.34;;;20.01;63.71
57048;BME280;42934;54.294;18.598;2023-07-02T10:08:36;99301.97;;;19.78;65.02
57048;BME280;42934;54.294;18.598;2023-07-02T10:11:10;99297.03;;;19.93;63.93
57048;BME280;42934;54.294;18.598;2023-07-02T10:13:39;99301.13;;;19.87;62.45
57048;BME280;42934;54.294;18.598;2023-07-02T10:16:09;99304.50;;;19.80;61.82
57048;BME280;42934;54.294;18.598;2023-07-02T10:18:40;99297.22;;;19.72;62.74
57048;BME280;42934;54.294;18.598;2023-07-02T10:21:16;99309.56;;;19.83;62.43
57048;BME280;42934;54.294;18.598;2023-07-02T10:23:46;99295.25;;;19.84;61.46
57048;BME280;42934;54.294;18.598;2023-07-02T10:26:17;99302.13;;;19.67;61.88
57048;BME280;42934;54.294;18.598;2023-07-02T10:28:56;99314.69;;;19.55;62.29
57048;BME280;42934;54.294;18.598;2023-07-02T10:31:26;99317.09;;;19.39;61.98
57048;BME280;42934;54.294;18.598;2023-07-02T10:33:57;99305.03;;;19.35;62.96
57048;BME280;42934;54.294;18.598;2023-07-02T10:36:26;99319.44;;;19.13;63.72
57048;BME280;42934;54.294;18.598;2023-07-02T10:39:01;99316.16;;;18.90;65.61
57048;BME280;42934;54.294;18.598;2023-07-02T10:41:33;99317.28;;;18.87;65.83
57048;BME280;42934;54.294;18.598;2023-07-02T10:44:07;99323.69;;;18.75;66.69
57048;BME280;42934;54.294;18.598;2023-07-02T10:46:44;99329.44;;;18.80;66.17
57048;BME280;42934;54.294;18.598;2023-07-02T10:49:17;99335.09;;;18.66;66.97
57048;BME280;42934;54.294;18.598;2023-07-02T10:51:57;99341.47;;;18.53;66.90
57048;BME280;42934;54.294;18.598;2023-07-02T10:54:39;99343.91;;;18.66;66.49
57048;BME280;42934;54.294;18.598;2023-07-02T10:57:09;99353.53;;;18.57;66.30
57048;BME280;42934;54.294;18.598;2023-07-02T10:59:41;99361.19;;;18.51;66.59
57048;BME280;42934;54.294;18.598;2023-07-02T11:02:11;99358.00;;;18.57;64.90
57048;BME280;42934;54.294;18.598;2023-07-02T11:04:43;99361.47;;;18.48;64.87
57048;BME280;42934;54.294;18.598;2023-07-02T11:07:14;99368.59;;;18.47;65.25
57048;BME280;42934;54.294;18.598;2023-07-02T11:09:52;99377.53;;;18.46;64.75
57048;BME280;42934;54.294;18.598;2023-07-02T11:12:28;99371.38;;;18.25;65.21
57048;BME280;42934;54.294;18.598;2023-07-02T11:15:08;99383.38;;;17.98;63.97
57048;BME280;42934;54.294;18.598;2023-07-02T11:17:38;99376.50;;;17.96;63.90
57048;BME280;42934;54.294;18.598;2023-07-02T11:20:13;99370.34;;;17.95;63.08
57048;BME280;42934;54.294;18.598;2023-07-02T11:22:43;99385.19;;;17.98;63.29
57048;BME280;42934;54.294;18.598;2023-07-02T11:25:17;99391.88;;;18.13;63.25
57048;BME280;42934;54.294;18.598;2023-07-02T11:27:48;99383.31;;;18.09;63.26
57048;BME280;42934;54.294;18.598;2023-07-02T11:35:14;99390.03;;;18.13;63.32
57048;BME280;42934;54.294;18.598;2023-07-02T11:37:45;99383.75;;;18.14;62.99
57048;BME280;42934;54.294;18.598;2023-07-02T11:44:01;99375.28;;;18.21;64.06
57048;BME280;42934;54.294;18.598;2023-07-02T11:46:30;99379.28;;;18.36;63.64
57048;BME280;42934;54.294;18.598;2023-07-02T11:49:02;99374.59;;;18.49;63.92
57048;BME280;42934;54.294;18.598;2023-07-02T11:51:34;99375.41;;;18.71;62.20
57048;BME280;42934;54.294;18.598;2023-07-02T11:54:04;99365.88;;;18.89;61.72
57048;BME280;42934;54.294;18.598;2023-07-02T11:56:33;99359.78;;;19.18;60.76
57048;BME280;42934;54.294;18.598;2023-07-02T11:59:03;99367.94;;;19.45;60.60
57048;BME280;42934;54.294;18.598;2023-07-02T12:01:34;99367.44;;;19.71;56.74
57048;BME280;42934;54.294;18.598;2023-07-02T12:04:04;99372.78;;;19.81;58.26
57048;BME280;42934;54.294;18.598;2023-07-02T12:06:36;99365.22;;;19.86;57.36
57048;BME280;42934;54.294;18.598;2023-07-02T12:09:06;99368.66;;;20.06;57.00
57048;BME280;42934;54.294;18.598;2023-07-02T12:11:38;99376.81;;;20.24;57.60
57048;BME280;42934;54.294;18.598;2023-07-02T12:14:07;99379.41;;;20.53;56.07
57048;BME280;42934;54.294;18.598;2023-07-02T12:16:36;99386.56;;;20.52;56.58
57048;BME280;42934;54.294;18.598;2023-07-02T12:19:06;99379.00;;;20.57;57.12
57048;BME280;42934;54.294;18.598;2023-07-02T12:21:36;99385.69;;;20.71;57.50
57048;BME280;42934;54.294;18.598;2023-07-02T12:24:06;99390.22;;;20.98;54.09
57048;BME280;42934;54.294;18.598;2023-07-02T12:26:39;99377.63;;;20.81;53.04
57048;BME280;42934;54.294;18.598;2023-07-02T12:29:11;99382.06;;;20.62;52.26
57048;BME280;42934;54.294;18.598;2023-07-02T12:31:41;99386.16;;;20.57;52.33
57048;BME280;42934;54.294;18.598;2023-07-02T12:34:11;99385.63;;;20.34;53.61
57048;BME280;42934;54.294;18.598;2023-07-02T12:36:43;99381.69;;;20.28;54.90
57048;BME280;42934;54.294;18.598;2023-07-02T12:39:14;99389.38;;;20.41;54.11
57048;BME280;42934;54.294;18.598;2023-07-02T12:41:50;99381.78;;;20.46;54.71
57048;BME280;42934;54.294;18.598;2023-07-02T12:44:20;99379.00;;;20.38;55.81
57048;BME280;42934;54.294;18.598;2023-07-02T12:46:51;99378.44;;;20.54;55.23
57048;BME280;42934;54.294;18.598;2023-07-02T12:49:24;99382.72;;;20.74;55.31
57048;BME280;42934;54.294;18.598;2023-07-02T12:51:55;99383.09;;;20.79;54.91
57048;BME280;42934;54.294;18.598;2023-07-02T12:54:25;99385.78;;;20.79;55.03
57048;BME280;42934;54.294;18.598;2023-07-02T12:56:54;99395.53;;;20.71;56.69
57048;BME280;42934;54.294;18.598;2023-07-02T12:59:26;99398.44;;;20.68;56.92
57048;BME280;42934;54.294;18.598;2023-07-02T13:01:57;99406.19;;;20.61;56.47
57048;BME280;42934;54.294;18.598;2023-07-02T13:04:27;99412.66;;;20.58;56.95
57048;BME280;42934;54.294;18.598;2023-07-02T13:06:58;99412.13;;;20.55;54.44
57048;BME280;42934;54.294;18.598;2023-07-02T13:17:31;99409.59;;;21.00;55.19
57048;BME280;42934;54.294;18.598;2023-07-02T13:20:04;99405.84;;;21.21;55.10
57048;BME280;42934;54.294;18.598;2023-07-02T13:22:38;99400.94;;;21.44;52.82
57048;BME280;42934;54.294;18.598;2023-07-02T13:25:08;99411.38;;;21.37;50.84